createdAt,value
2018-10-12T00:01:12.909Z,6.40
2018-10-12T00:03:40.459Z,6.40
2018-10-12T00:06:07.140Z,6.40
2018-10-12T00:08:34.563Z,6.40
2018-10-12T00:11:01.374Z,6.40
2018-10-12T00:13:28.062Z,6.30
2018-10-12T00:15:55.652Z,6.30
2018-10-12T00:18:22.381Z,6.20
2018-10-12T00:20:49.862Z,6.40
2018-10-12T00:23:17.403Z,6.40
2018-10-12T00:25:44.124Z,6.40
2018-10-12T00:28:10.914Z,6.30
2018-10-12T00:30:37.645Z,6.40
2018-10-12T00:33:04.340Z,6.40
2018-10-12T00:35:31.815Z,6.50
2018-10-12T00:37:58.709Z,6.50
2018-10-12T00:40:25.395Z,6.50
2018-10-12T00:42:52.209Z,6.30
2018-10-12T00:45:18.999Z,6.30
2018-10-12T00:47:45.751Z,6.30
2018-10-12T00:50:12.500Z,6.20
2018-10-12T00:52:39.936Z,6.30
2018-10-12T00:55:06.690Z,6.30
2018-10-12T00:57:33.504Z,6.40
2018-10-12T01:00:00.979Z,6.70
2018-10-12T01:02:27.845Z,6.60
2018-10-12T01:04:54.546Z,6.90
2018-10-12T01:07:21.307Z,7.00
2018-10-12T01:09:48.020Z,6.80
2018-10-12T01:12:14.800Z,6.80
2018-10-12T01:14:41.514Z,6.80
2018-10-12T01:17:08.272Z,6.80
2018-10-12T01:19:35.021Z,6.80
2018-10-12T01:22:02.511Z,7.10
2018-10-12T01:24:29.263Z,7.00
2018-10-12T01:26:56.037Z,7.00
2018-10-12T01:29:22.813Z,7.30
2018-10-12T01:31:49.562Z,7.30
2018-10-12T01:34:16.334Z,7.40
2018-10-12T01:36:43.189Z,7.60
2018-10-12T01:39:10.717Z,7.60
2018-10-12T01:41:37.388Z,7.60
2018-10-12T01:44:04.929Z,7.30
2018-10-12T01:46:32.486Z,7.30
2018-10-12T01:48:59.971Z,7.40
2018-10-12T01:51:26.712Z,7.40
2018-10-12T01:53:53.468Z,7.50
2018-10-12T01:56:20.241Z,7.50
2018-10-12T01:58:46.933Z,7.50
2018-10-12T02:01:13.751Z,7.50
2018-10-12T02:03:40.610Z,7.60
2018-10-12T02:06:08.047Z,7.80
2018-10-12T02:08:34.943Z,7.90
2018-10-12T02:11:01.681Z,8.00
2018-10-12T02:13:28.395Z,7.90
2018-10-12T02:15:55.856Z,7.90
2018-10-12T02:18:23.271Z,7.80
2018-10-12T02:20:49.972Z,7.80
2018-10-12T02:23:16.682Z,7.80
2018-10-12T02:25:44.314Z,7.80
2018-10-12T02:28:11.037Z,7.80
2018-10-12T02:30:37.993Z,7.80
2018-10-12T02:33:04.903Z,7.90
2018-10-12T02:35:47.259Z,8.00
2018-10-12T02:38:14.944Z,7.90
2018-10-12T02:40:41.680Z,7.90
2018-10-12T02:43:09.126Z,8.00
2018-10-12T02:45:35.847Z,8.00
2018-10-12T02:48:02.567Z,8.10
2018-10-12T02:50:29.261Z,8.20
2018-10-12T02:52:56.925Z,8.20
2018-10-12T02:55:24.344Z,8.10
2018-10-12T02:57:51.017Z,8.10
2018-10-12T03:00:18.467Z,8.00
2018-10-12T03:02:46.093Z,8.00
2018-10-12T03:05:12.865Z,8.00
2018-10-12T03:07:40.311Z,8.00
2018-10-12T03:10:07.046Z,8.00
2018-10-12T03:12:33.743Z,8.00
2018-10-12T03:15:00.397Z,8.10
2018-10-12T03:17:27.865Z,7.90
2018-10-12T03:19:54.658Z,7.90
2018-10-12T03:22:21.361Z,7.90
2018-10-12T03:24:48.133Z,8.00
2018-10-12T03:27:14.918Z,8.00
2018-10-12T03:29:41.657Z,8.00
2018-10-12T03:32:08.432Z,8.00
2018-10-12T03:34:35.205Z,8.10
2018-10-12T03:37:02.031Z,8.10
2018-10-12T03:39:28.957Z,8.00
2018-10-12T03:41:56.494Z,8.00
2018-10-12T03:44:23.213Z,8.00
2018-10-12T03:46:50.047Z,8.00
2018-10-12T03:49:16.789Z,8.10
2018-10-12T03:51:43.586Z,8.10
2018-10-12T03:54:11.183Z,8.40
2018-10-12T03:56:37.907Z,8.40
2018-10-12T03:59:05.434Z,8.40
2018-10-12T04:01:32.204Z,8.40
2018-10-12T04:03:58.931Z,8.50
2018-10-12T04:06:26.476Z,8.50
2018-10-12T04:08:53.196Z,8.50
2018-10-12T04:11:20.124Z,8.50
2018-10-12T04:13:46.900Z,8.50
2018-10-12T04:16:13.821Z,8.60
2018-10-12T04:18:40.614Z,8.60
2018-10-12T04:21:08.150Z,8.80
2018-10-12T04:23:35.839Z,8.80
2018-10-12T04:26:03.366Z,8.90
2018-10-12T04:28:30.120Z,8.90
2018-10-12T04:30:56.828Z,8.80
2018-10-12T04:33:23.619Z,8.90
2018-10-12T04:35:51.107Z,8.90
2018-10-12T04:38:18.019Z,8.80
2018-10-12T04:40:44.948Z,8.90
2018-10-12T04:43:11.693Z,8.90
2018-10-12T04:45:53.467Z,8.90
2018-10-12T04:48:20.269Z,8.90
2018-10-12T04:50:47.017Z,8.90
2018-10-12T04:53:13.787Z,8.90
2018-10-12T04:55:40.533Z,8.80
2018-10-12T04:58:07.380Z,8.70
2018-10-12T05:00:34.201Z,8.70
2018-10-12T05:03:01.001Z,8.70
2018-10-12T05:05:27.742Z,8.60
2018-10-12T05:07:54.494Z,8.60
2018-10-12T05:10:21.220Z,8.50
2018-10-12T05:12:48.023Z,8.50
2018-10-12T05:15:15.639Z,8.50
2018-10-12T05:17:42.442Z,8.40
2018-10-12T05:20:10.068Z,8.50
2018-10-12T05:22:36.789Z,8.50
2018-10-12T05:25:06.162Z,8.50
2018-10-12T05:27:33.197Z,8.50
2018-10-12T05:30:00.828Z,8.50
2018-10-12T05:32:28.566Z,8.50
2018-10-12T05:34:55.634Z,8.50
2018-10-12T05:37:23.418Z,8.60
2018-10-12T05:39:50.290Z,8.60
2018-10-12T05:42:17.376Z,8.70
2018-10-12T05:44:48.195Z,8.70
2018-10-12T05:47:15.265Z,8.80
2018-10-12T05:49:45.025Z,8.80
2018-10-12T05:52:12.540Z,8.80
2018-10-12T05:54:39.281Z,8.80
2018-10-12T05:57:06.073Z,8.80
2018-10-12T05:59:33.556Z,9.00
2018-10-12T06:02:00.332Z,9.00
2018-10-12T06:04:27.859Z,9.20
2018-10-12T06:06:54.566Z,9.10
2018-10-12T06:09:21.373Z,9.30
2018-10-12T06:11:48.090Z,9.30
2018-10-12T06:14:14.903Z,9.40
2018-10-12T06:16:42.413Z,9.40
2018-10-12T06:19:09.101Z,9.40
2018-10-12T06:21:36.034Z,9.50
2018-10-12T06:24:03.510Z,9.70
2018-10-12T06:26:30.278Z,9.60
2018-10-12T06:28:57.035Z,9.70
2018-10-12T06:31:23.765Z,9.80
2018-10-12T06:33:50.531Z,9.90
2018-10-12T06:36:17.226Z,10.00
2018-10-12T06:38:43.981Z,10.00
2018-10-12T06:41:10.877Z,10.20
2018-10-12T06:43:37.637Z,10.20
2018-10-12T06:46:04.460Z,10.30
2018-10-12T06:48:31.221Z,10.40
2018-10-12T06:50:58.083Z,10.40
2018-10-12T06:53:24.809Z,10.60
2018-10-12T06:55:51.486Z,10.70
2018-10-12T06:58:18.311Z,10.80
2018-10-12T07:00:45.077Z,10.80
2018-10-12T07:03:11.860Z,10.70
2018-10-12T07:05:38.626Z,10.70
2018-10-12T07:08:05.397Z,10.80
2018-10-12T07:10:32.241Z,10.80
2018-10-12T07:12:58.999Z,10.90
2018-10-12T07:15:26.471Z,11.20
2018-10-12T07:17:53.947Z,11.20
2018-10-12T07:20:20.664Z,11.20
2018-10-12T07:22:48.258Z,11.30
2018-10-12T07:25:14.980Z,11.20
2018-10-12T07:27:42.520Z,12.00
2018-10-12T07:30:09.273Z,12.00
2018-10-12T07:32:36.753Z,13.90
2018-10-12T07:35:03.668Z,13.80
2018-10-12T07:37:30.373Z,14.50
2018-10-12T07:39:57.853Z,15.10
2018-10-12T07:42:24.738Z,15.10
2018-10-12T07:44:55.109Z,15.80
2018-10-12T07:47:22.680Z,16.50
2018-10-12T07:49:49.389Z,16.40
2018-10-12T07:52:16.115Z,15.80
2018-10-12T07:54:43.110Z,15.10
2018-10-12T07:57:09.975Z,14.80
2018-10-12T07:59:36.693Z,14.70
2018-10-12T08:02:03.559Z,14.50
2018-10-12T08:04:30.269Z,14.30
2018-10-12T08:06:57.687Z,14.20
2018-10-12T08:09:24.622Z,14.10
2018-10-12T08:11:51.341Z,13.80
2018-10-12T08:14:18.075Z,13.40
2018-10-12T08:16:45.589Z,13.50
2018-10-12T08:19:12.336Z,13.40
2018-10-12T08:21:39.083Z,13.40
2018-10-12T08:24:05.834Z,13.60
2018-10-12T08:26:33.315Z,13.90
2018-10-12T08:29:00.802Z,13.90
2018-10-12T08:31:27.782Z,13.80
2018-10-12T08:33:54.479Z,13.80
2018-10-12T08:36:21.189Z,13.70
2018-10-12T08:38:48.097Z,13.80
2018-10-12T08:41:14.788Z,14.10
2018-10-12T08:43:41.481Z,14.10
2018-10-12T08:46:08.991Z,13.80
2018-10-12T08:48:35.749Z,13.80
2018-10-12T08:51:02.593Z,13.70
2018-10-12T08:53:29.284Z,13.70
2018-10-12T08:55:55.987Z,13.70
2018-10-12T08:58:22.729Z,13.80
2018-10-12T09:00:49.596Z,13.70
2018-10-12T09:03:17.324Z,13.80
2018-10-12T09:05:44.029Z,13.80
2018-10-12T09:08:10.827Z,13.80
2018-10-12T09:10:37.553Z,13.90
2018-10-12T09:13:04.265Z,13.80
2018-10-12T09:15:31.006Z,13.80
2018-10-12T09:17:57.761Z,13.80
2018-10-12T09:20:24.502Z,14.00
2018-10-12T09:22:51.214Z,14.20
2018-10-12T09:25:18.698Z,14.20
2018-10-12T09:27:45.391Z,14.20
2018-10-12T09:30:12.112Z,14.40
2018-10-12T09:32:39.913Z,14.40
2018-10-12T09:35:06.655Z,14.40
2018-10-12T09:37:34.097Z,14.50
2018-10-12T09:40:00.966Z,14.50
2018-10-12T09:42:27.679Z,14.50
2018-10-12T09:44:54.388Z,14.60
2018-10-12T09:47:21.261Z,14.70
2018-10-12T09:49:48.015Z,14.80
2018-10-12T09:52:15.436Z,14.80
2018-10-12T09:54:42.168Z,14.80
2018-10-12T09:57:08.997Z,14.90
2018-10-12T09:59:35.734Z,15.00
2018-10-12T10:02:08.398Z,15.00
2018-10-12T10:04:35.254Z,15.00
2018-10-12T10:07:02.065Z,15.00
2018-10-12T10:09:28.774Z,15.20
2018-10-12T10:11:55.496Z,15.20
2018-10-12T10:14:22.209Z,15.20
2018-10-12T10:16:48.955Z,15.20
2018-10-12T10:19:15.730Z,15.20
2018-10-12T10:21:43.241Z,15.30
2018-10-12T10:24:09.946Z,15.20
2018-10-12T10:26:37.522Z,15.40
2018-10-12T10:29:04.336Z,15.40
2018-10-12T10:31:31.070Z,15.50
2018-10-12T10:33:57.844Z,15.50
2018-10-12T10:36:24.577Z,15.60
2018-10-12T10:38:51.309Z,15.60
2018-10-12T10:41:18.815Z,15.70
2018-10-12T10:43:45.517Z,15.60
2018-10-12T10:46:13.074Z,15.80
2018-10-12T10:48:39.959Z,15.80
2018-10-12T10:51:07.494Z,15.80
2018-10-12T10:53:34.307Z,15.80
2018-10-12T10:56:01.815Z,15.90
2018-10-12T10:58:28.511Z,15.80
2018-10-12T11:00:56.107Z,16.10
2018-10-12T11:03:23.521Z,16.20
2018-10-12T11:05:51.076Z,16.10
2018-10-12T11:08:17.798Z,16.20
2018-10-12T11:10:44.496Z,16.40
2018-10-12T11:13:11.349Z,16.50
2018-10-12T11:15:38.197Z,16.60
2018-10-12T11:18:04.973Z,16.60
2018-10-12T11:20:31.840Z,16.80
2018-10-12T11:22:59.255Z,16.70
2018-10-12T11:25:26.021Z,16.60
2018-10-12T11:27:52.724Z,16.80
2018-10-12T11:30:19.452Z,16.80
2018-10-12T11:32:46.919Z,17.10
2018-10-12T11:35:13.709Z,17.00
2018-10-12T11:37:40.607Z,17.00
2018-10-12T11:40:07.366Z,17.00
2018-10-12T11:42:34.115Z,17.10
2018-10-12T11:45:01.058Z,17.10
2018-10-12T11:47:28.748Z,17.10
2018-10-12T11:49:56.222Z,17.20
2018-10-12T11:52:23.133Z,17.20
2018-10-12T11:54:50.650Z,17.20
2018-10-12T11:57:17.314Z,17.40
2018-10-12T11:59:44.949Z,17.20
2018-10-12T12:02:11.719Z,17.20
2018-10-12T12:04:38.432Z,17.20
2018-10-12T12:07:05.163Z,17.40
2018-10-12T12:09:31.888Z,17.30
2018-10-12T12:11:58.596Z,17.30
2018-10-12T12:14:25.316Z,17.30
2018-10-12T12:16:52.026Z,17.40
2018-10-12T12:19:18.869Z,17.40
2018-10-12T12:21:45.618Z,17.40
2018-10-12T12:24:12.307Z,17.30
2018-10-12T12:26:39.740Z,17.30
2018-10-12T12:29:06.483Z,17.20
2018-10-12T12:31:33.297Z,17.20
2018-10-12T12:34:00.075Z,17.20
2018-10-12T12:36:26.959Z,17.10
2018-10-12T12:38:53.839Z,17.10
2018-10-12T12:41:20.550Z,17.20
2018-10-12T12:43:47.255Z,17.10
2018-10-12T12:46:13.986Z,17.20
2018-10-12T12:48:40.924Z,17.30
2018-10-12T12:51:07.458Z,17.30
2018-10-12T12:53:34.987Z,17.40
2018-10-12T12:56:01.708Z,17.30
2018-10-12T12:58:28.441Z,17.40
2018-10-12T13:00:55.266Z,17.40
2018-10-12T13:03:22.726Z,17.50
2018-10-12T13:05:50.200Z,17.50
2018-10-12T13:08:16.960Z,17.40
2018-10-12T13:10:43.664Z,17.40
2018-10-12T13:13:10.362Z,17.40
2018-10-12T13:15:37.112Z,17.50
2018-10-12T13:18:03.841Z,17.40
2018-10-12T13:20:30.624Z,17.50
2018-10-12T13:22:58.185Z,17.60
2018-10-12T13:25:25.028Z,17.70
2018-10-12T13:27:52.499Z,17.50
2018-10-12T13:30:20.019Z,17.40
2018-10-12T13:32:46.693Z,17.40
2018-10-12T13:35:13.438Z,17.40
2018-10-12T13:37:40.232Z,17.30
2018-10-12T13:40:07.095Z,17.30
2018-10-12T13:42:34.075Z,17.40
2018-10-12T13:45:00.795Z,17.30
2018-10-12T13:47:28.279Z,17.20
2018-10-12T13:49:55.179Z,17.20
2018-10-12T13:52:21.859Z,17.20
2018-10-12T13:54:49.733Z,17.20
2018-10-12T13:57:16.704Z,17.10
2018-10-12T13:59:43.465Z,17.20
2018-10-12T14:02:10.185Z,17.10
2018-10-12T14:04:37.001Z,17.10
2018-10-12T14:07:03.862Z,17.10
2018-10-12T14:09:30.922Z,17.00
2018-10-12T14:11:57.625Z,17.00
2018-10-12T14:14:24.513Z,16.90
2018-10-12T14:16:51.262Z,16.90
2018-10-12T14:19:18.325Z,16.80
2018-10-12T14:21:45.468Z,16.80
2018-10-12T14:24:13.770Z,16.70
2018-10-12T14:26:40.586Z,16.70
2018-10-12T14:29:07.392Z,16.60
2018-10-12T14:31:34.195Z,16.50
2018-10-12T14:34:00.958Z,16.40
2018-10-12T14:36:28.383Z,16.30
2018-10-12T14:38:55.770Z,16.30
2018-10-12T14:41:23.690Z,16.20
2018-10-12T14:43:51.061Z,16.20
2018-10-12T14:46:17.858Z,16.10
2018-10-12T14:48:44.781Z,16.00
2018-10-12T14:51:11.535Z,15.90
2018-10-12T14:53:38.438Z,15.90
2018-10-12T14:56:06.117Z,15.90
2018-10-12T14:58:32.940Z,15.60
2018-10-12T15:01:00.637Z,15.70
2018-10-12T15:03:27.650Z,15.60
2018-10-12T15:05:54.404Z,15.60
2018-10-12T15:08:21.242Z,15.40
2018-10-12T15:10:48.554Z,15.40
2018-10-12T15:13:15.424Z,15.20
2018-10-12T15:15:42.867Z,15.10
2018-10-12T15:18:12.319Z,15.00
2018-10-12T15:20:39.130Z,15.00
2018-10-12T15:23:06.110Z,14.90
2018-10-12T15:25:33.717Z,14.60
2018-10-12T15:28:00.500Z,14.60
2018-10-12T15:30:27.409Z,14.50
2018-10-12T15:32:54.919Z,14.30
2018-10-12T15:35:21.747Z,14.20
2018-10-12T15:37:48.736Z,14.20
2018-10-12T15:40:15.505Z,14.00
2018-10-12T15:42:43.059Z,14.00
2018-10-12T15:45:09.994Z,14.10
2018-10-12T15:47:37.441Z,13.90
2018-10-12T15:50:04.219Z,13.70
2018-10-12T15:52:31.042Z,13.80
2018-10-12T15:54:58.664Z,13.40
2018-10-12T15:57:25.517Z,13.40
2018-10-12T15:59:52.620Z,13.30
2018-10-12T16:02:19.310Z,13.30
2018-10-12T16:04:46.119Z,13.30
2018-10-12T16:07:12.915Z,13.10
2018-10-12T16:09:39.744Z,13.10
2018-10-12T16:12:06.617Z,13.00
2018-10-12T16:14:33.409Z,13.20
2018-10-12T16:17:00.297Z,12.90
2018-10-12T16:19:27.962Z,12.80
2018-10-12T16:21:55.519Z,12.80
2018-10-12T16:24:22.979Z,12.70
2018-10-12T16:26:50.631Z,12.60
2018-10-12T16:29:18.075Z,12.60
2018-10-12T16:31:44.902Z,12.50
2018-10-12T16:34:11.793Z,12.50
2018-10-12T16:36:39.327Z,12.30
2018-10-12T16:39:06.167Z,12.30
2018-10-12T16:41:34.123Z,12.10
2018-10-12T16:44:00.877Z,12.10
2018-10-12T16:46:27.610Z,12.00
2018-10-12T16:48:54.480Z,11.90
2018-10-12T16:51:21.181Z,12.00
2018-10-12T16:53:47.960Z,11.80
2018-10-12T16:56:15.452Z,11.80
2018-10-12T16:58:42.196Z,11.80
2018-10-12T17:01:09.124Z,11.70
2018-10-12T17:03:35.892Z,11.70
2018-10-12T17:06:02.930Z,11.60
2018-10-12T17:08:29.791Z,11.60
2018-10-12T17:10:56.525Z,11.50
2018-10-12T17:13:24.001Z,11.40
2018-10-12T17:15:50.761Z,11.40
2018-10-12T17:18:17.548Z,11.40
2018-10-12T17:20:44.531Z,11.30
2018-10-12T17:23:12.021Z,11.20
2018-10-12T17:25:39.506Z,11.20
2018-10-12T17:28:06.299Z,11.20
2018-10-12T17:30:33.064Z,11.20
2018-10-12T17:32:59.854Z,11.10
2018-10-12T17:35:26.586Z,11.10
2018-10-12T17:37:53.296Z,11.10
2018-10-12T17:40:20.803Z,11.10
2018-10-12T17:42:47.513Z,11.10
2018-10-12T17:45:14.299Z,11.10
2018-10-12T17:47:41.054Z,11.00
2018-10-12T17:50:08.199Z,11.00
2018-10-12T17:52:35.075Z,11.00
2018-10-12T17:55:01.957Z,11.00
2018-10-12T17:57:28.751Z,11.00
2018-10-12T17:59:55.656Z,11.00
2018-10-12T18:02:22.445Z,10.90
2018-10-12T18:04:49.966Z,10.90
2018-10-12T18:07:16.700Z,10.90
2018-10-12T18:09:43.453Z,10.90
2018-10-12T18:12:11.163Z,11.00
2018-10-12T18:14:38.092Z,10.90
2018-10-12T18:17:04.830Z,10.90
2018-10-12T18:19:32.377Z,11.00
2018-10-12T18:21:59.870Z,10.90
2018-10-12T18:24:26.553Z,10.90
2018-10-12T18:26:53.277Z,10.90
2018-10-12T18:29:20.272Z,10.80
2018-10-12T18:31:47.598Z,10.90
2018-10-12T18:34:14.384Z,10.80
2018-10-12T18:36:41.196Z,10.90
2018-10-12T18:39:08.878Z,10.80
2018-10-12T18:41:36.395Z,10.70
2018-10-12T18:44:03.137Z,10.70
2018-10-12T18:46:29.938Z,10.60
2018-10-12T18:48:56.715Z,10.50
2018-10-12T18:51:23.694Z,10.60
2018-10-12T18:53:51.178Z,10.50
2018-10-12T18:56:17.936Z,10.50
2018-10-12T18:58:44.753Z,10.50
2018-10-12T19:01:11.501Z,10.40
2018-10-12T19:03:38.251Z,10.40
2018-10-12T19:06:05.825Z,10.40
2018-10-12T19:08:33.425Z,10.50
2018-10-12T19:11:00.229Z,10.40
2018-10-12T19:13:27.019Z,10.50
2018-10-12T19:15:53.781Z,10.40
2018-10-12T19:18:20.524Z,10.40
2018-10-12T19:20:47.412Z,10.50
2018-10-12T19:23:14.247Z,10.40
2018-10-12T19:25:40.964Z,10.40
2018-10-12T19:28:07.737Z,10.40
2018-10-12T19:30:34.477Z,10.50
2018-10-12T19:33:01.186Z,10.30
2018-10-12T19:35:28.150Z,10.40
2018-10-12T19:37:54.835Z,10.30
2018-10-12T19:40:37.208Z,10.20
2018-10-12T19:43:03.951Z,10.20
2018-10-12T19:45:30.668Z,10.20
2018-10-12T19:47:57.413Z,10.10
2018-10-12T19:50:24.295Z,10.10
2018-10-12T19:52:51.900Z,10.00
2018-10-12T19:55:18.586Z,10.00
2018-10-12T19:57:45.358Z,10.00
2018-10-12T20:00:12.861Z,9.90
2018-10-12T20:02:39.609Z,9.80
2018-10-12T20:05:07.110Z,9.80
2018-10-12T20:07:33.828Z,9.70
2018-10-12T20:10:00.648Z,9.70
2018-10-12T20:12:27.377Z,9.70
2018-10-12T20:14:54.183Z,9.70
2018-10-12T20:17:21.030Z,9.70
2018-10-12T20:19:47.728Z,9.70
2018-10-12T20:22:14.563Z,9.70
2018-10-12T20:24:41.290Z,9.60
2018-10-12T20:27:08.025Z,9.60
2018-10-12T20:29:34.741Z,9.60
2018-10-12T20:32:01.506Z,9.60
2018-10-12T20:34:28.272Z,9.60
2018-10-12T20:36:55.829Z,9.60
2018-10-12T20:39:22.741Z,9.60
2018-10-12T20:41:50.179Z,9.70
2018-10-12T20:44:17.201Z,9.70
2018-10-12T20:46:43.968Z,9.70
2018-10-12T20:49:10.733Z,9.70
2018-10-12T20:51:37.564Z,9.70
2018-10-12T20:54:04.505Z,9.80
2018-10-12T20:56:31.207Z,9.70
2018-10-12T20:58:58.807Z,9.70
2018-10-12T21:01:25.505Z,9.70
2018-10-12T21:03:52.240Z,9.80
2018-10-12T21:06:19.047Z,9.70
2018-10-12T21:08:45.797Z,9.70
2018-10-12T21:11:12.571Z,9.70
2018-10-12T21:13:39.308Z,9.70
2018-10-12T21:16:06.905Z,9.70
2018-10-12T21:18:33.704Z,9.70
2018-10-12T21:21:00.419Z,9.80
2018-10-12T21:23:27.359Z,9.80
2018-10-12T21:25:54.082Z,9.80
2018-10-12T21:28:20.840Z,9.80
2018-10-12T21:30:47.592Z,9.90
2018-10-12T21:33:15.043Z,10.00
2018-10-12T21:35:41.980Z,9.90
2018-10-12T21:38:08.648Z,10.00
2018-10-12T21:40:35.379Z,10.00
2018-10-12T21:43:02.231Z,10.00
2018-10-12T21:45:29.711Z,10.00
2018-10-12T21:47:56.437Z,9.90
2018-10-12T21:50:23.156Z,9.90
2018-10-12T21:52:50.672Z,9.80
2018-10-12T21:55:17.434Z,9.80
2018-10-12T21:57:44.216Z,9.80
2018-10-12T22:00:11.766Z,9.80
2018-10-12T22:02:38.532Z,9.80
2018-10-12T22:05:05.496Z,9.70
2018-10-12T22:07:32.518Z,9.70
2018-10-12T22:10:00.062Z,9.70
2018-10-12T22:12:26.717Z,9.70
2018-10-12T22:14:53.584Z,9.70
2018-10-12T22:17:20.407Z,9.70
2018-10-12T22:19:47.196Z,9.70
2018-10-12T22:22:13.911Z,9.60
2018-10-12T22:24:40.713Z,9.60
2018-10-12T22:27:08.229Z,9.60
2018-10-12T22:29:34.913Z,9.60
2018-10-12T22:32:02.627Z,9.50
2018-10-12T22:34:29.349Z,9.50
2018-10-12T22:36:56.125Z,9.50
2018-10-12T22:39:22.887Z,9.50
2018-10-12T22:41:49.606Z,9.40
2018-10-12T22:44:16.324Z,9.40
2018-10-12T22:46:43.124Z,9.40
2018-10-12T22:49:10.542Z,9.50
2018-10-12T22:51:37.297Z,9.40
2018-10-12T22:54:04.107Z,9.50
2018-10-12T22:56:30.870Z,9.50
2018-10-12T22:59:00.431Z,9.50
2018-10-12T23:01:27.158Z,9.50
2018-10-12T23:03:54.575Z,9.50
2018-10-12T23:06:21.341Z,9.50
2018-10-12T23:08:48.025Z,9.50
2018-10-12T23:11:14.784Z,9.50
2018-10-12T23:13:41.712Z,9.60
2018-10-12T23:16:08.412Z,9.50
2018-10-12T23:18:35.180Z,9.50
2018-10-12T23:21:02.002Z,9.60
2018-10-12T23:23:29.430Z,9.50
2018-10-12T23:25:57.111Z,9.40
2018-10-12T23:28:23.807Z,9.40
2018-10-12T23:30:50.677Z,9.40
2018-10-12T23:33:29.506Z,9.40
2018-10-12T23:35:56.185Z,9.30
2018-10-12T23:38:22.902Z,9.30
2018-10-12T23:40:49.711Z,9.40
2018-10-12T23:43:16.388Z,9.40
2018-10-12T23:45:43.814Z,9.30
2018-10-12T23:48:10.650Z,9.30
2018-10-12T23:50:37.332Z,9.30
2018-10-12T23:53:04.139Z,9.30
2018-10-12T23:55:30.831Z,9.30
2018-10-12T23:57:57.505Z,9.30
